sensor_id;sensor_type;location;lat;lon;timestamp;P1;durP1;ratioP1;P2;durP2;ratioP2
23242;SDS011;11790;49.578;11.214;2022-07-19T00:00:33;2.80;;;2.00;;
23242;SDS011;11790;49.578;11.214;2022-07-19T00:05:33;6.00;;;1.90;;
23242;SDS011;11790;49.578;11.214;2022-07-19T00:10:34;3.00;;;2.28;;
23242;SDS011;11790;49.578;11.214;2022-07-19T00:15:34;4.07;;;2.10;;
23242;SDS011;11790;49.578;11.214;2022-07-19T00:20:34;3.25;;;2.15;;
23242;SDS011;11790;49.578;11.214;2022-07-19T00:25:34;2.70;;;1.80;;
23242;SDS011;11790;49.578;11.214;2022-07-19T00:30:35;3.60;;;1.90;;
23242;SDS011;11790;49.578;11.214;2022-07-19T00:35:36;4.80;;;2.78;;
23242;SDS011;11790;49.578;11.214;2022-07-19T00:40:36;3.70;;;2.33;;
23242;SDS011;11790;49.578;11.214;2022-07-19T00:45:37;2.80;;;2.08;;
23242;SDS011;11790;49.578;11.214;2022-07-19T00:50:37;4.28;;;2.03;;
23242;SDS011;11790;49.578;11.214;2022-07-19T00:55:38;2.80;;;1.92;;
23242;SDS011;11790;49.578;11.214;2022-07-19T01:00:40;2.78;;;2.03;;
23242;SDS011;11790;49.578;11.214;2022-07-19T01:05:41;3.85;;;2.40;;
23242;SDS011;11790;49.578;11.214;2022-07-19T01:10:41;4.05;;;2.10;;
23242;SDS011;11790;49.578;11.214;2022-07-19T01:15:41;3.85;;;2.08;;
23242;SDS011;11790;49.578;11.214;2022-07-19T01:20:42;6.05;;;2.47;;
23242;SDS011;11790;49.578;11.214;2022-07-19T01:25:42;3.10;;;2.20;;
23242;SDS011;11790;49.578;11.214;2022-07-19T01:30:42;3.85;;;2.28;;
23242;SDS011;11790;49.578;11.214;2022-07-19T01:35:42;5.50;;;2.20;;
23242;SDS011;11790;49.578;11.214;2022-07-19T01:40:43;4.55;;;2.40;;
23242;SDS011;11790;49.578;11.214;2022-07-19T01:45:43;4.63;;;2.47;;
23242;SDS011;11790;49.578;11.214;2022-07-19T01:50:43;4.90;;;2.30;;
23242;SDS011;11790;49.578;11.214;2022-07-19T01:55:43;5.93;;;2.30;;
23242;SDS011;11790;49.578;11.214;2022-07-19T02:00:44;3.45;;;2.20;;
23242;SDS011;11790;49.578;11.214;2022-07-19T02:05:45;3.45;;;2.10;;
23242;SDS011;11790;49.578;11.214;2022-07-19T02:10:45;4.15;;;2.45;;
23242;SDS011;11790;49.578;11.214;2022-07-19T02:15:45;2.87;;;2.10;;
23242;SDS011;11790;49.578;11.214;2022-07-19T02:20:45;3.45;;;2.40;;
23242;SDS011;11790;49.578;11.214;2022-07-19T02:25:46;2.38;;;2.08;;
23242;SDS011;11790;49.578;11.214;2022-07-19T02:30:46;3.63;;;2.28;;
23242;SDS011;11790;49.578;11.214;2022-07-19T02:35:46;4.30;;;2.38;;
23242;SDS011;11790;49.578;11.214;2022-07-19T02:40:46;3.85;;;2.35;;
23242;SDS011;11790;49.578;11.214;2022-07-19T02:45:47;4.22;;;2.80;;
23242;SDS011;11790;49.578;11.214;2022-07-19T02:50:47;3.10;;;2.15;;
23242;SDS011;11790;49.578;11.214;2022-07-19T02:55:48;4.50;;;2.65;;
23242;SDS011;11790;49.578;11.214;2022-07-19T03:00:48;4.65;;;2.30;;
23242;SDS011;11790;49.578;11.214;2022-07-19T03:05:48;2.75;;;2.20;;
23242;SDS011;11790;49.578;11.214;2022-07-19T03:10:49;3.47;;;2.35;;
23242;SDS011;11790;49.578;11.214;2022-07-19T03:15:49;4.75;;;2.38;;
23242;SDS011;11790;49.578;11.214;2022-07-19T03:20:49;4.13;;;2.35;;
23242;SDS011;11790;49.578;11.214;2022-07-19T03:25:49;2.97;;;2.33;;
23242;SDS011;11790;49.578;11.214;2022-07-19T03:30:51;7.22;;;2.75;;
23242;SDS011;11790;49.578;11.214;2022-07-19T03:35:51;8.27;;;3.30;;
23242;SDS011;11790;49.578;11.214;2022-07-19T03:40:52;4.95;;;2.70;;
23242;SDS011;11790;49.578;11.214;2022-07-19T03:45:52;3.58;;;2.72;;
23242;SDS011;11790;49.578;11.214;2022-07-19T03:50:52;7.10;;;2.75;;
23242;SDS011;11790;49.578;11.214;2022-07-19T03:55:52;3.40;;;2.78;;
23242;SDS011;11790;49.578;11.214;2022-07-19T04:00:52;4.90;;;2.97;;
23242;SDS011;11790;49.578;11.214;2022-07-19T04:05:53;4.63;;;2.88;;
23242;SDS011;11790;49.578;11.214;2022-07-19T04:10:53;4.57;;;2.80;;
23242;SDS011;11790;49.578;11.214;2022-07-19T04:15:53;3.63;;;2.63;;
23242;SDS011;11790;49.578;11.214;2022-07-19T04:20:53;4.95;;;2.90;;
23242;SDS011;11790;49.578;11.214;2022-07-19T04:25:54;4.30;;;2.83;;
23242;SDS011;11790;49.578;11.214;2022-07-19T04:30:54;8.30;;;3.03;;
23242;SDS011;11790;49.578;11.214;2022-07-19T04:35:54;3.92;;;2.53;;
23242;SDS011;11790;49.578;11.214;2022-07-19T04:40:54;5.73;;;3.20;;
23242;SDS011;11790;49.578;11.214;2022-07-19T04:45:55;3.88;;;2.95;;
23242;SDS011;11790;49.578;11.214;2022-07-19T04:50:56;4.32;;;3.10;;
23242;SDS011;11790;49.578;11.214;2022-07-19T04:55:57;3.53;;;2.90;;
23242;SDS011;11790;49.578;11.214;2022-07-19T05:00:57;6.28;;;2.83;;
23242;SDS011;11790;49.578;11.214;2022-07-19T05:05:57;10.48;;;3.03;;
23242;SDS011;11790;49.578;11.214;2022-07-19T05:10:57;5.37;;;3.47;;
23242;SDS011;11790;49.578;11.214;2022-07-19T05:15:58;3.80;;;2.85;;
23242;SDS011;11790;49.578;11.214;2022-07-19T05:20:58;3.38;;;2.78;;
23242;SDS011;11790;49.578;11.214;2022-07-19T05:25:58;4.60;;;3.00;;
23242;SDS011;11790;49.578;11.214;2022-07-19T05:30:58;4.40;;;2.85;;
23242;SDS011;11790;49.578;11.214;2022-07-19T05:35:59;5.20;;;2.90;;
23242;SDS011;11790;49.578;11.214;2022-07-19T05:40:59;4.27;;;2.80;;
23242;SDS011;11790;49.578;11.214;2022-07-19T05:45:59;6.57;;;2.80;;
23242;SDS011;11790;49.578;11.214;2022-07-19T05:51:00;7.00;;;3.28;;
23242;SDS011;11790;49.578;11.214;2022-07-19T05:56:00;6.43;;;2.83;;
23242;SDS011;11790;49.578;11.214;2022-07-19T06:01:01;5.75;;;2.60;;
23242;SDS011;11790;49.578;11.214;2022-07-19T06:06:20;3.25;;;2.40;;
23242;SDS011;11790;49.578;11.214;2022-07-19T06:11:20;4.10;;;2.13;;
23242;SDS011;11790;49.578;11.214;2022-07-19T06:16:20;3.63;;;1.87;;
23242;SDS011;11790;49.578;11.214;2022-07-19T06:21:21;3.47;;;2.23;;
23242;SDS011;11790;49.578;11.214;2022-07-19T06:26:21;4.53;;;1.83;;
23242;SDS011;11790;49.578;11.214;2022-07-19T06:31:22;3.50;;;1.63;;
23242;SDS011;11790;49.578;11.214;2022-07-19T06:36:22;3.05;;;1.58;;
23242;SDS011;11790;49.578;11.214;2022-07-19T06:41:22;4.05;;;1.73;;
23242;SDS011;11790;49.578;11.214;2022-07-19T06:46:22;3.35;;;1.40;;
23242;SDS011;11790;49.578;11.214;2022-07-19T06:51:23;3.30;;;1.50;;
23242;SDS011;11790;49.578;11.214;2022-07-19T06:56:23;3.53;;;1.40;;
23242;SDS011;11790;49.578;11.214;2022-07-19T07:01:23;2.63;;;1.45;;
23242;SDS011;11790;49.578;11.214;2022-07-19T07:06:24;3.25;;;1.30;;
23242;SDS011;11790;49.578;11.214;2022-07-19T07:11:24;2.20;;;1.10;;
23242;SDS011;11790;49.578;11.214;2022-07-19T07:16:24;3.75;;;1.30;;
23242;SDS011;11790;49.578;11.214;2022-07-19T07:21:25;3.20;;;1.33;;
23242;SDS011;11790;49.578;11.214;2022-07-19T07:26:25;3.65;;;1.30;;
23242;SDS011;11790;49.578;11.214;2022-07-19T07:31:25;4.63;;;1.30;;
23242;SDS011;11790;49.578;11.214;2022-07-19T07:36:25;2.83;;;0.90;;
23242;SDS011;11790;49.578;11.214;2022-07-19T07:41:26;2.22;;;1.20;;
23242;SDS011;11790;49.578;11.214;2022-07-19T07:46:26;3.22;;;1.13;;
23242;SDS011;11790;49.578;11.214;2022-07-19T07:51:26;1.20;;;1.10;;
23242;SDS011;11790;49.578;11.214;2022-07-19T07:56:26;1.48;;;1.20;;
23242;SDS011;11790;49.578;11.214;2022-07-19T08:01:27;5.23;;;1.23;;
23242;SDS011;11790;49.578;11.214;2022-07-19T08:06:29;1.30;;;1.10;;
23242;SDS011;11790;49.578;11.214;2022-07-19T08:11:30;2.72;;;1.20;;
23242;SDS011;11790;49.578;11.214;2022-07-19T08:16:30;1.23;;;1.00;;
23242;SDS011;11790;49.578;11.214;2022-07-19T08:21:30;0.90;;;0.82;;
23242;SDS011;11790;49.578;11.214;2022-07-19T08:26:31;2.00;;;1.13;;
23242;SDS011;11790;49.578;11.214;2022-07-19T08:31:31;1.43;;;1.00;;
23242;SDS011;11790;49.578;11.214;2022-07-19T08:36:31;1.25;;;1.05;;
23242;SDS011;11790;49.578;11.214;2022-07-19T08:41:32;1.30;;;1.10;;
23242;SDS011;11790;49.578;11.214;2022-07-19T08:46:32;2.43;;;1.00;;
23242;SDS011;11790;49.578;11.214;2022-07-19T08:51:32;2.08;;;1.23;;
23242;SDS011;11790;49.578;11.214;2022-07-19T08:56:32;2.00;;;1.10;;
23242;SDS011;11790;49.578;11.214;2022-07-19T09:01:51;1.88;;;1.10;;
23242;SDS011;11790;49.578;11.214;2022-07-19T09:06:53;3.53;;;1.20;;
23242;SDS011;11790;49.578;11.214;2022-07-19T09:11:54;2.13;;;1.02;;
23242;SDS011;11790;49.578;11.214;2022-07-19T09:16:59;1.20;;;1.00;;
23242;SDS011;11790;49.578;11.214;2022-07-19T09:27:08;3.83;;;1.40;;
23242;SDS011;11790;49.578;11.214;2022-07-19T09:32:12;1.45;;;1.10;;
23242;SDS011;11790;49.578;11.214;2022-07-19T09:37:14;1.80;;;1.20;;
23242;SDS011;11790;49.578;11.214;2022-07-19T09:42:16;1.92;;;1.10;;
23242;SDS011;11790;49.578;11.214;2022-07-19T09:47:17;1.38;;;0.90;;
23242;SDS011;11790;49.578;11.214;2022-07-19T09:52:29;2.47;;;1.25;;
23242;SDS011;11790;49.578;11.214;2022-07-19T09:57:32;2.80;;;1.10;;
23242;SDS011;11790;49.578;11.214;2022-07-19T10:02:34;1.83;;;1.30;;
23242;SDS011;11790;49.578;11.214;2022-07-19T10:07:35;2.08;;;1.20;;
23242;SDS011;11790;49.578;11.214;2022-07-19T10:12:36;2.03;;;1.20;;
23242;SDS011;11790;49.578;11.214;2022-07-19T10:23:00;3.75;;;1.48;;
23242;SDS011;11790;49.578;11.214;2022-07-19T10:28:00;2.78;;;1.20;;
23242;SDS011;11790;49.578;11.214;2022-07-19T10:33:01;1.40;;;1.08;;
23242;SDS011;11790;49.578;11.214;2022-07-19T10:38:21;2.88;;;1.10;;
23242;SDS011;11790;49.578;11.214;2022-07-19T10:43:22;1.30;;;1.00;;
23242;SDS011;11790;49.578;11.214;2022-07-19T10:53:56;1.50;;;1.00;;
23242;SDS011;11790;49.578;11.214;2022-07-19T10:58:56;21.02;;;2.60;;
23242;SDS011;11790;49.578;11.214;2022-07-19T11:09:16;1.70;;;1.20;;
23242;SDS011;11790;49.578;11.214;2022-07-19T11:14:16;3.20;;;1.10;;
23242;SDS011;11790;49.578;11.214;2022-07-19T11:19:19;2.08;;;1.08;;
23242;SDS011;11790;49.578;11.214;2022-07-19T11:24:20;2.75;;;1.27;;
23242;SDS011;11790;49.578;11.214;2022-07-19T11:29:20;2.33;;;1.10;;
23242;SDS011;11790;49.578;11.214;2022-07-19T11:34:21;2.05;;;1.00;;
23242;SDS011;11790;49.578;11.214;2022-07-19T11:39:21;2.72;;;1.08;;
23242;SDS011;11790;49.578;11.214;2022-07-19T11:44:21;2.78;;;1.02;;
23242;SDS011;11790;49.578;11.214;2022-07-19T11:49:21;1.42;;;1.10;;
23242;SDS011;11790;49.578;11.214;2022-07-19T11:54:22;2.53;;;1.02;;
23242;SDS011;11790;49.578;11.214;2022-07-19T11:59:22;3.28;;;1.30;;
23242;SDS011;11790;49.578;11.214;2022-07-19T12:04:22;1.17;;;0.98;;
23242;SDS011;11790;49.578;11.214;2022-07-19T12:09:27;2.55;;;1.20;;
23242;SDS011;11790;49.578;11.214;2022-07-19T12:19:29;1.92;;;1.05;;
23242;SDS011;11790;49.578;11.214;2022-07-19T12:24:29;1.73;;;1.20;;
23242;SDS011;11790;49.578;11.214;2022-07-19T12:29:31;1.80;;;1.23;;
23242;SDS011;11790;49.578;11.214;2022-07-19T12:34:49;2.92;;;1.23;;
23242;SDS011;11790;49.578;11.214;2022-07-19T12:45:20;3.53;;;1.35;;
23242;SDS011;11790;49.578;11.214;2022-07-19T12:50:25;2.35;;;1.20;;
23242;SDS011;11790;49.578;11.214;2022-07-19T12:55:26;1.55;;;1.10;;
23242;SDS011;11790;49.578;11.214;2022-07-19T13:00:28;2.08;;;1.20;;
23242;SDS011;11790;49.578;11.214;2022-07-19T13:05:28;1.70;;;1.30;;
23242;SDS011;11790;49.578;11.214;2022-07-19T13:10:29;1.70;;;1.20;;
23242;SDS011;11790;49.578;11.214;2022-07-19T13:15:29;4.70;;;1.27;;
23242;SDS011;11790;49.578;11.214;2022-07-19T13:20:29;4.40;;;1.20;;
23242;SDS011;11790;49.578;11.214;2022-07-19T13:25:30;3.08;;;1.20;;
23242;SDS011;11790;49.578;11.214;2022-07-19T13:30:30;7.00;;;1.50;;
23242;SDS011;11790;49.578;11.214;2022-07-19T13:35:30;2.72;;;1.45;;
23242;SDS011;11790;49.578;11.214;2022-07-19T13:40:30;3.17;;;1.52;;
23242;SDS011;11790;49.578;11.214;2022-07-19T13:45:31;1.50;;;1.15;;
23242;SDS011;11790;49.578;11.214;2022-07-19T13:50:31;2.40;;;1.45;;
23242;SDS011;11790;49.578;11.214;2022-07-19T13:55:32;8.95;;;1.38;;
23242;SDS011;11790;49.578;11.214;2022-07-19T14:00:32;1.95;;;1.42;;
23242;SDS011;11790;49.578;11.214;2022-07-19T14:05:33;3.40;;;1.38;;
23242;SDS011;11790;49.578;11.214;2022-07-19T14:10:34;1.90;;;1.20;;
23242;SDS011;11790;49.578;11.214;2022-07-19T14:15:35;3.90;;;1.30;;
23242;SDS011;11790;49.578;11.214;2022-07-19T14:20:36;5.32;;;1.40;;
23242;SDS011;11790;49.578;11.214;2022-07-19T14:25:36;4.85;;;1.42;;
23242;SDS011;11790;49.578;11.214;2022-07-19T14:30:37;3.03;;;1.30;;
23242;SDS011;11790;49.578;11.214;2022-07-19T14:35:37;4.75;;;1.33;;
23242;SDS011;11790;49.578;11.214;2022-07-19T14:40:37;1.43;;;1.13;;
23242;SDS011;11790;49.578;11.214;2022-07-19T14:45:37;7.85;;;1.80;;
23242;SDS011;11790;49.578;11.214;2022-07-19T14:50:38;1.67;;;1.48;;
23242;SDS011;11790;49.578;11.214;2022-07-19T14:55:38;3.15;;;1.30;;
23242;SDS011;11790;49.578;11.214;2022-07-19T15:00:38;2.35;;;1.00;;
23242;SDS011;11790;49.578;11.214;2022-07-19T15:05:39;2.00;;;1.27;;
23242;SDS011;11790;49.578;11.214;2022-07-19T15:10:39;3.13;;;1.35;;
23242;SDS011;11790;49.578;11.214;2022-07-19T15:15:39;1.75;;;1.20;;
23242;SDS011;11790;49.578;11.214;2022-07-19T15:20:39;3.38;;;1.30;;
23242;SDS011;11790;49.578;11.214;2022-07-19T15:25:39;2.83;;;1.60;;
23242;SDS011;11790;49.578;11.214;2022-07-19T15:30:42;2.17;;;1.40;;
23242;SDS011;11790;49.578;11.214;2022-07-19T15:35:43;1.58;;;1.20;;
23242;SDS011;11790;49.578;11.214;2022-07-19T15:40:43;2.25;;;1.42;;
23242;SDS011;11790;49.578;11.214;2022-07-19T15:45:43;3.10;;;1.33;;
23242;SDS011;11790;49.578;11.214;2022-07-19T15:50:45;4.13;;;1.45;;
23242;SDS011;11790;49.578;11.214;2022-07-19T15:55:45;3.40;;;1.27;;
23242;SDS011;11790;49.578;11.214;2022-07-19T16:00:45;1.98;;;1.40;;
23242;SDS011;11790;49.578;11.214;2022-07-19T16:05:46;4.25;;;1.50;;
23242;SDS011;11790;49.578;11.214;2022-07-19T16:10:46;3.00;;;1.73;;
23242;SDS011;11790;49.578;11.214;2022-07-19T16:15:47;2.53;;;1.35;;
23242;SDS011;11790;49.578;11.214;2022-07-19T16:20:47;2.47;;;1.50;;
23242;SDS011;11790;49.578;11.214;2022-07-19T16:25:47;2.60;;;1.40;;
23242;SDS011;11790;49.578;11.214;2022-07-19T16:30:48;2.03;;;1.60;;
23242;SDS011;11790;49.578;11.214;2022-07-19T16:35:48;2.70;;;1.87;;
23242;SDS011;11790;49.578;11.214;2022-07-19T16:40:48;2.40;;;1.65;;
23242;SDS011;11790;49.578;11.214;2022-07-19T16:45:49;3.58;;;1.98;;
23242;SDS011;11790;49.578;11.214;2022-07-19T16:50:49;2.90;;;1.53;;
23242;SDS011;11790;49.578;11.214;2022-07-19T16:55:49;3.95;;;1.65;;
23242;SDS011;11790;49.578;11.214;2022-07-19T17:00:49;2.60;;;1.80;;
23242;SDS011;11790;49.578;11.214;2022-07-19T17:05:50;4.53;;;1.50;;
23242;SDS011;11790;49.578;11.214;2022-07-19T17:10:50;4.10;;;1.92;;
23242;SDS011;11790;49.578;11.214;2022-07-19T17:15:50;2.05;;;1.48;;
23242;SDS011;11790;49.578;11.214;2022-07-19T17:20:51;3.30;;;1.90;;
23242;SDS011;11790;49.578;11.214;2022-07-19T17:25:51;3.78;;;1.63;;
23242;SDS011;11790;49.578;11.214;2022-07-19T17:30:51;3.83;;;1.73;;
23242;SDS011;11790;49.578;11.214;2022-07-19T17:35:51;3.58;;;1.95;;
23242;SDS011;11790;49.578;11.214;2022-07-19T17:40:51;2.58;;;1.90;;
23242;SDS011;11790;49.578;11.214;2022-07-19T17:45:52;5.28;;;1.63;;
23242;SDS011;11790;49.578;11.214;2022-07-19T17:50:53;2.78;;;1.75;;
23242;SDS011;11790;49.578;11.214;2022-07-19T17:55:53;2.72;;;2.03;;
23242;SDS011;11790;49.578;11.214;2022-07-19T18:00:53;4.50;;;2.00;;
23242;SDS011;11790;49.578;11.214;2022-07-19T18:05:54;6.50;;;2.30;;
23242;SDS011;11790;49.578;11.214;2022-07-19T18:10:54;3.13;;;2.03;;
23242;SDS011;11790;49.578;11.214;2022-07-19T18:15:54;4.77;;;2.27;;
23242;SDS011;11790;49.578;11.214;2022-07-19T18:20:55;7.40;;;2.67;;
23242;SDS011;11790;49.578;11.214;2022-07-19T18:25:55;7.38;;;2.55;;
23242;SDS011;11790;49.578;11.214;2022-07-19T18:30:55;5.80;;;2.33;;
23242;SDS011;11790;49.578;11.214;2022-07-19T18:35:56;5.70;;;2.10;;
23242;SDS011;11790;49.578;11.214;2022-07-19T18:40:56;6.53;;;2.45;;
23242;SDS011;11790;49.578;11.214;2022-07-19T18:45:56;4.70;;;2.60;;
23242;SDS011;11790;49.578;11.214;2022-07-19T18:51:01;3.17;;;2.10;;
23242;SDS011;11790;49.578;11.214;2022-07-19T18:56:04;3.38;;;2.33;;
23242;SDS011;11790;49.578;11.214;2022-07-19T19:01:04;5.97;;;3.78;;
23242;SDS011;11790;49.578;11.214;2022-07-19T19:06:04;4.85;;;4.00;;
23242;SDS011;11790;49.578;11.214;2022-07-19T19:11:05;7.80;;;4.63;;
23242;SDS011;11790;49.578;11.214;2022-07-19T19:16:05;5.40;;;3.70;;
23242;SDS011;11790;49.578;11.214;2022-07-19T19:21:05;7.50;;;3.77;;
23242;SDS011;11790;49.578;11.214;2022-07-19T19:26:06;6.37;;;3.50;;
23242;SDS011;11790;49.578;11.214;2022-07-19T19:31:06;7.10;;;3.27;;
23242;SDS011;11790;49.578;11.214;2022-07-19T19:36:07;5.90;;;3.35;;
23242;SDS011;11790;49.578;11.214;2022-07-19T19:41:07;4.97;;;2.92;;
23242;SDS011;11790;49.578;11.214;2022-07-19T19:46:08;6.38;;;3.00;;
23242;SDS011;11790;49.578;11.214;2022-07-19T19:51:08;7.50;;;3.20;;
23242;SDS011;11790;49.578;11.214;2022-07-19T19:56:09;5.18;;;2.63;;
23242;SDS011;11790;49.578;11.214;2022-07-19T20:01:10;4.88;;;2.97;;
23242;SDS011;11790;49.578;11.214;2022-07-19T20:06:10;4.67;;;2.83;;
23242;SDS011;11790;49.578;11.214;2022-07-19T20:11:11;6.28;;;3.13;;
23242;SDS011;11790;49.578;11.214;2022-07-19T20:16:11;6.95;;;3.20;;
23242;SDS011;11790;49.578;11.214;2022-07-19T20:21:11;3.83;;;2.83;;
23242;SDS011;11790;49.578;11.214;2022-07-19T20:26:12;4.53;;;3.03;;
23242;SDS011;11790;49.578;11.214;2022-07-19T20:31:12;7.50;;;3.53;;
23242;SDS011;11790;49.578;11.214;2022-07-19T20:36:12;5.72;;;3.47;;
23242;SDS011;11790;49.578;11.214;2022-07-19T20:41:12;4.57;;;3.17;;
23242;SDS011;11790;49.578;11.214;2022-07-19T20:46:13;10.48;;;3.15;;
23242;SDS011;11790;49.578;11.214;2022-07-19T20:51:13;7.40;;;3.30;;
23242;SDS011;11790;49.578;11.214;2022-07-19T20:56:13;5.67;;;2.97;;
23242;SDS011;11790;49.578;11.214;2022-07-19T21:01:13;6.18;;;2.92;;
23242;SDS011;11790;49.578;11.214;2022-07-19T21:06:14;7.50;;;3.50;;
23242;SDS011;11790;49.578;11.214;2022-07-19T21:11:14;7.78;;;3.10;;
23242;SDS011;11790;49.578;11.214;2022-07-19T21:16:14;4.18;;;3.03;;
23242;SDS011;11790;49.578;11.214;2022-07-19T21:21:15;9.05;;;3.20;;
23242;SDS011;11790;49.578;11.214;2022-07-19T21:26:15;7.05;;;3.53;;
23242;SDS011;11790;49.578;11.214;2022-07-19T21:31:15;4.78;;;3.00;;
23242;SDS011;11790;49.578;11.214;2022-07-19T21:36:15;5.88;;;3.15;;
23242;SDS011;11790;49.578;11.214;2022-07-19T21:41:16;9.65;;;3.15;;
23242;SDS011;11790;49.578;11.214;2022-07-19T21:46:16;11.35;;;3.40;;
23242;SDS011;11790;49.578;11.214;2022-07-19T21:51:16;9.18;;;3.33;;
23242;SDS011;11790;49.578;11.214;2022-07-19T21:56:18;5.72;;;3.22;;
23242;SDS011;11790;49.578;11.214;2022-07-19T22:01:18;5.10;;;3.23;;
23242;SDS011;11790;49.578;11.214;2022-07-19T22:06:18;6.47;;;3.40;;
23242;SDS011;11790;49.578;11.214;2022-07-19T22:11:19;7.05;;;3.38;;
23242;SDS011;11790;49.578;11.214;2022-07-19T22:16:19;10.52;;;3.50;;
23242;SDS011;11790;49.578;11.214;2022-07-19T22:21:20;5.15;;;3.40;;
23242;SDS011;11790;49.578;11.214;2022-07-19T22:26:20;6.05;;;3.35;;
23242;SDS011;11790;49.578;11.214;2022-07-19T22:31:21;6.05;;;3.05;;
23242;SDS011;11790;49.578;11.214;2022-07-19T22:36:21;5.10;;;2.95;;
23242;SDS011;11790;49.578;11.214;2022-07-19T22:41:21;5.70;;;3.90;;
23242;SDS011;11790;49.578;11.214;2022-07-19T22:46:21;5.82;;;3.33;;
23242;SDS011;11790;49.578;11.214;2022-07-19T22:51:21;4.97;;;3.45;;
23242;SDS011;11790;49.578;11.214;2022-07-19T22:56:22;5.30;;;3.40;;
23242;SDS011;11790;49.578;11.214;2022-07-19T23:01:22;6.55;;;3.72;;
23242;SDS011;11790;49.578;11.214;2022-07-19T23:06:22;8.13;;;3.63;;
23242;SDS011;11790;49.578;11.214;2022-07-19T23:11:23;5.78;;;3.85;;
23242;SDS011;11790;49.578;11.214;2022-07-19T23:16:23;6.18;;;3.53;;
23242;SDS011;11790;49.578;11.214;2022-07-19T23:21:23;6.22;;;3.75;;
23242;SDS011;11790;49.578;11.214;2022-07-19T23:26:23;4.65;;;3.47;;
23242;SDS011;11790;49.578;11.214;2022-07-19T23:31:23;5.80;;;3.80;;
23242;SDS011;11790;49.578;11.214;2022-07-19T23:36:24;7.10;;;3.60;;
23242;SDS011;11790;49.578;11.214;2022-07-19T23:41:24;6.80;;;3.90;;
23242;SDS011;11790;49.578;11.214;2022-07-19T23:46:24;6.03;;;3.45;;
23242;SDS011;11790;49.578;11.214;2022-07-19T23:51:25;9.95;;;3.47;;
23242;SDS011;11790;49.578;11.214;2022-07-19T23:56:25;7.82;;;3.75;;
